Time;durP1;ratioP1;P1;durP2;ratioP2;P2;SDS_P1;SDS_P2;PMS_P1;PMS_P2;Temp;Humidity;BMP_temperature;BMP_pressure;BME280_temperature;BME280_humidity;BME280_pressure;Samples;Min_cycle;Max_cycle;Signal;HPM_P1;HPM_P2
2023/04/03 00:01:20;;;;;;;8.60;3.50;;;;;;;5.22;88.76;102860.47;5038958;28;20421;-65
2023/04/03 00:03:48;;;;;;;9.02;3.60;;;;;;;5.16;89.01;102867.44;5047155;28;20112;-65
2023/04/03 00:06:16;;;;;;;4.97;3.28;;;;;;;5.16;89.22;102863.91;5068465;28;20382;-66
2023/04/03 00:08:44;;;;;;;7.07;3.58;;;;;;;5.12;88.67;102868.81;5036132;28;20111;-65
2023/04/03 00:11:12;;;;;;;9.30;3.67;;;;;;;5.03;89.44;102873.47;5047421;28;20543;-67
2023/04/03 00:13:40;;;;;;;8.55;4.25;;;;;;;5.02;89.77;102873.63;5022795;28;20053;-65
2023/04/03 00:16:09;;;;;;;6.15;3.40;;;;;;;5.04;90.20;102877.84;5035034;28;20045;-66
2023/04/03 00:18:37;;;;;;;7.50;3.45;;;;;;;5.11;90.37;102876.09;5034752;28;20375;-66
2023/04/03 00:21:05;;;;;;;7.25;3.60;;;;;;;5.17;89.64;102868.28;5034334;28;20049;-66
2023/04/03 00:23:33;;;;;;;7.80;3.70;;;;;;;5.18;88.96;102876.22;5007559;28;20077;-66
2023/04/03 00:26:01;;;;;;;8.05;3.67;;;;;;;5.11;88.68;102881.50;5035164;28;20430;-66
2023/04/03 00:28:29;;;;;;;7.15;3.20;;;;;;;4.98;89.06;102875.88;5035758;28;20120;-66
2023/04/03 00:30:56;;;;;;;6.47;3.40;;;;;;;4.84;89.74;102879.34;5044475;28;20068;-66
2023/04/03 00:33:24;;;;;;;8.63;3.47;;;;;;;4.77;91.20;102872.97;5055466;28;20464;-68
2023/04/03 00:35:52;;;;;;;6.90;3.25;;;;;;;4.76;91.08;102880.22;5054217;28;20072;-66
2023/04/03 00:38:20;;;;;;;7.57;3.30;;;;;;;4.81;90.96;102885.06;5054316;28;20057;-66
2023/04/03 00:40:49;;;;;;;6.47;3.28;;;;;;;4.85;90.45;102875.59;5034788;28;20056;-66
2023/04/03 00:43:21;;;;;;;9.52;3.88;;;;;;;4.80;90.81;102883.41;5041911;28;20081;-65
2023/04/03 00:45:56;;;;;;;7.88;3.22;;;;;;;4.67;90.76;102884.84;5051411;28;20049;-65
2023/04/03 00:48:28;;;;;;;7.25;3.38;;;;;;;4.57;91.45;102889.63;5034119;28;20146;-65
2023/04/03 00:50:57;;;;;;;7.18;3.22;;;;;;;4.51;91.67;102895.72;5037375;28;20473;-65
2023/04/03 00:53:55;;;;;;;6.35;3.17;;;;;;;4.45;91.85;102894.59;5037623;28;20045;-65
2023/04/03 00:56:25;;;;;;;7.97;3.50;;;;;;;4.47;92.22;102897.09;5051284;28;20052;-65
2023/04/03 00:59:22;;;;;;;7.38;3.25;;;;;;;4.43;92.50;102898.47;5054190;28;20489;-65
2023/04/03 01:01:50;;;;;;;7.03;3.22;;;;;;;4.42;92.34;102897.59;5052829;28;20055;-66
2023/04/03 01:04:39;;;;;;;7.00;3.30;;;;;;;4.48;92.35;102901.47;5054146;28;20076;-64
2023/04/03 01:07:12;;;;;;;7.40;3.22;;;;;;;4.39;91.89;102900.66;5038049;28;20056;-66
2023/04/03 01:09:40;;;;;;;7.47;3.47;;;;;;;4.33;92.37;102900.53;5053367;28;20058;-66
2023/04/03 01:12:31;;;;;;;11.60;3.83;;;;;;;4.30;92.47;102901.72;5034487;28;20073;-67
2023/04/03 01:15:03;;;;;;;6.40;3.28;;;;;;;4.24;92.67;102905.97;5033502;28;20127;-66
2023/04/03 01:17:47;;;;;;;7.10;3.30;;;;;;;4.31;92.84;102900.72;5000786;28;20128;-66
2023/04/03 01:20:36;;;;;;;6.68;3.30;;;;;;;4.30;92.36;102908.97;5007343;28;20127;-66
2023/04/03 01:23:12;;;;;;;6.47;3.30;;;;;;;4.29;91.98;102896.50;5054311;28;20045;-65
2023/04/03 01:25:49;;;;;;;9.18;3.38;;;;;;;4.23;92.09;102908.81;5055300;28;20045;-66
2023/04/03 01:28:30;;;;;;;10.10;3.10;;;;;;;4.15;92.15;102904.31;5054348;28;20049;-66
2023/04/03 01:31:14;;;;;;;5.35;2.65;;;;;;;4.10;93.11;102904.00;5054197;28;20135;-65
2023/04/03 01:33:43;;;;;;;8.82;3.22;;;;;;;4.10;93.00;102906.69;5042560;28;20086;-65
2023/04/03 01:36:21;;;;;;;6.25;2.90;;;;;;;4.10;92.95;102898.59;5037101;28;20501;-64
2023/04/03 01:38:49;;;;;;;6.43;3.33;;;;;;;4.10;92.57;102905.84;4999006;28;20058;-65
2023/04/03 01:41:17;;;;;;;9.50;3.08;;;;;;;4.14;92.43;102899.09;5031539;28;20124;-66
2023/04/03 01:43:48;;;;;;;8.52;3.28;;;;;;;4.17;91.96;102902.28;5042266;28;20053;-66
2023/04/03 01:46:17;;;;;;;5.93;2.83;;;;;;;4.23;92.18;102909.69;5060259;28;20053;-67
2023/04/03 01:48:46;;;;;;;4.97;2.80;;;;;;;4.21;91.17;102900.91;5056269;28;20049;-66
2023/04/03 01:51:13;;;;;;;6.72;3.15;;;;;;;4.12;91.53;102903.81;5050327;28;20450;-65
2023/04/03 01:53:41;;;;;;;6.95;3.10;;;;;;;4.15;91.78;102907.00;5038558;28;20045;-65
2023/04/03 01:56:09;;;;;;;5.20;2.65;;;;;;;4.16;91.66;102908.69;5061804;28;20124;-66
2023/04/03 01:58:37;;;;;;;6.22;3.05;;;;;;;4.14;92.47;102913.44;5058657;28;20100;-65
2023/04/03 02:01:05;;;;;;;5.85;2.83;;;;;;;4.19;91.64;102911.03;5061150;28;20056;-66
2023/04/03 02:03:33;;;;;;;6.93;2.92;;;;;;;4.23;91.57;102906.13;5036724;28;20045;-67
2023/04/03 02:06:01;;;;;;;7.50;2.85;;;;;;;4.23;90.97;102907.00;5046699;28;20053;-65
2023/04/03 02:08:29;;;;;;;6.53;3.00;;;;;;;4.17;91.04;102909.53;5046147;28;20050;-65
2023/04/03 02:10:56;;;;;;;7.00;3.05;;;;;;;4.18;91.66;102914.75;5029816;28;20057;-67
2023/04/03 02:13:24;;;;;;;6.07;2.90;;;;;;;4.24;91.38;102915.91;5042094;28;20062;-65
2023/04/03 02:15:52;;;;;;;6.07;2.90;;;;;;;4.23;90.69;102920.47;5050609;28;20570;-66
2023/04/03 02:18:20;;;;;;;9.15;3.08;;;;;;;4.22;91.25;102924.19;5052431;28;20053;-67
2023/04/03 02:20:49;;;;;;;6.25;2.92;;;;;;;4.23;90.59;102922.31;5035790;28;20059;-66
2023/04/03 02:23:16;;;;;;;5.82;2.75;;;;;;;4.14;91.16;102924.22;5049755;28;20049;-66
2023/04/03 02:25:44;;;;;;;7.00;3.10;;;;;;;4.14;91.42;102921.53;5054140;28;20068;-66
2023/04/03 02:28:12;;;;;;;8.57;3.17;;;;;;;4.19;91.60;102924.53;5052260;28;20436;-67
2023/04/03 02:30:39;;;;;;;6.53;2.90;;;;;;;4.19;91.19;102924.53;5052128;28;20499;-66
2023/04/03 02:33:07;;;;;;;5.05;2.67;;;;;;;4.22;90.87;102920.66;5050453;28;20126;-67
2023/04/03 02:35:36;;;;;;;6.68;2.85;;;;;;;4.13;90.32;102930.59;5055252;28;20558;-67
2023/04/03 02:38:05;;;;;;;8.48;3.10;;;;;;;4.11;90.53;102921.84;5022737;28;20053;-66
2023/04/03 02:40:34;;;;;;;5.72;2.80;;;;;;;4.08;90.61;102929.44;5013703;28;20070;-66
2023/04/03 02:43:02;;;;;;;7.43;2.80;;;;;;;4.01;91.19;102929.28;5046123;28;20504;-66
2023/04/03 02:45:32;;;;;;;8.10;2.80;;;;;;;4.00;91.25;102927.63;5046538;28;20120;-66
2023/04/03 02:48:00;;;;;;;7.22;2.85;;;;;;;4.02;91.77;102933.69;5052511;28;20049;-66
2023/04/03 02:50:28;;;;;;;7.65;2.60;;;;;;;4.02;91.08;102928.31;5037195;28;20040;-66
2023/04/03 02:52:55;;;;;;;5.80;2.80;;;;;;;4.04;90.80;102931.63;5055650;28;20124;-65
2023/04/03 02:55:23;;;;;;;5.88;2.65;;;;;;;4.04;90.80;102928.94;5049750;28;20068;-66
2023/04/03 02:57:53;;;;;;;7.00;2.88;;;;;;;4.01;90.85;102934.69;5051702;28;20428;-66
2023/04/03 03:00:21;;;;;;;5.93;2.88;;;;;;;3.97;90.90;102936.03;5055821;28;20465;-66
2023/04/03 03:02:49;;;;;;;6.65;3.00;;;;;;;3.94;91.97;102939.09;5056163;28;20080;-66
2023/04/03 03:05:17;;;;;;;6.38;2.60;;;;;;;3.96;91.81;102934.38;5054018;28;20048;-66
2023/04/03 03:07:45;;;;;;;4.95;2.58;;;;;;;3.97;91.04;102936.03;5043528;28;20046;-67
2023/04/03 03:10:13;;;;;;;6.32;2.47;;;;;;;3.98;91.52;102943.13;5020156;28;20068;-66
2023/04/03 03:12:41;;;;;;;10.20;2.85;;;;;;;4.03;91.38;102936.19;5020156;28;20042;-66
2023/04/03 03:15:09;;;;;;;5.90;2.80;;;;;;;4.02;90.68;102933.69;5035936;28;20049;-66
2023/04/03 03:17:37;;;;;;;5.00;2.50;;;;;;;3.98;91.56;102933.19;5056894;28;20547;-65
2023/04/03 03:20:06;;;;;;;7.65;2.70;;;;;;;4.01;91.12;102937.38;5056237;28;20049;-65
2023/04/03 03:22:34;;;;;;;6.60;2.58;;;;;;;4.01;90.96;102937.38;5039293;28;20044;-67
2023/04/03 03:25:03;;;;;;;6.38;3.00;;;;;;;3.98;91.24;102933.19;5056306;28;20079;-65
2023/04/03 03:27:30;;;;;;;8.05;2.95;;;;;;;3.90;90.81;102941.31;5053296;28;20063;-66
2023/04/03 03:29:58;;;;;;;6.15;2.67;;;;;;;3.84;91.27;102941.97;5055343;28;20496;-65
2023/04/03 03:32:26;;;;;;;7.13;2.75;;;;;;;3.84;92.25;102941.97;5022747;28;20063;-67
2023/04/03 03:34:53;;;;;;;5.78;2.78;;;;;;;3.83;92.25;102941.13;5055726;28;20041;-66
2023/04/03 03:37:21;;;;;;;6.55;2.75;;;;;;;3.88;92.24;102943.31;5045978;28;20116;-65
2023/04/03 03:39:49;;;;;;;6.93;3.25;;;;;;;3.88;91.83;102948.72;5035339;28;20508;-66
2023/04/03 03:42:17;;;;;;;5.28;2.70;;;;;;;3.86;91.44;102955.28;5068497;28;20045;-66
2023/04/03 03:44:45;;;;;;;5.95;2.75;;;;;;;3.77;91.79;102952.59;5036784;28;20547;-66
2023/04/03 03:47:13;;;;;;;5.63;2.85;;;;;;;3.73;91.52;102953.97;5056384;28;20094;-65
2023/04/03 03:49:40;;;;;;;5.65;2.67;;;;;;;3.63;92.15;102961.34;5038820;28;20123;-65
2023/04/03 03:52:10;;;;;;;8.60;2.90;;;;;;;3.51;92.60;102960.88;5055399;28;20132;-65
2023/04/03 03:54:38;;;;;;;4.38;2.40;;;;;;;3.40;93.07;102962.03;5039271;28;20049;-65
2023/04/03 03:57:06;;;;;;;7.78;2.90;;;;;;;3.38;93.52;102957.84;5052789;28;20071;-66
2023/04/03 03:59:34;;;;;;;5.85;2.72;;;;;;;3.38;93.19;102958.66;5037294;28;20049;-66
2023/04/03 04:02:02;;;;;;;6.82;2.63;;;;;;;3.37;93.88;102962.38;5035378;28;20041;-66
2023/04/03 04:04:30;;;;;;;6.03;2.70;;;;;;;3.31;93.54;102968.44;5033474;28;20053;-67
2023/04/03 04:06:57;;;;;;;7.72;2.83;;;;;;;3.28;93.83;102970.63;5034310;28;20116;-65
2023/04/03 04:09:25;;;;;;;5.72;2.33;;;;;;;3.14;94.97;102978.34;5053262;28;20037;-66
2023/04/03 04:11:54;;;;;;;5.72;2.40;;;;;;;3.15;95.90;102979.16;5054290;28;20045;-66
2023/04/03 04:14:22;;;;;;;6.55;2.70;;;;;;;3.26;95.54;102978.88;5022049;28;20095;-65
2023/04/03 04:16:51;;;;;;;4.32;2.40;;;;;;;3.33;94.79;102977.19;5054996;28;20099;-65
2023/04/03 04:19:23;;;;;;;5.50;2.40;;;;;;;3.33;94.58;102977.19;5036613;28;20114;-65
2023/04/03 04:21:51;;;;;;;4.43;2.58;;;;;;;3.31;94.61;102972.97;5054745;28;20079;-65
2023/04/03 04:24:19;;;;;;;8.85;2.95;;;;;;;3.31;94.69;102978.38;5027539;28;20096;-68
2023/04/03 04:26:49;;;;;;;11.27;2.85;;;;;;;3.30;95.71;102972.16;5017998;28;20489;-67
2023/04/03 04:29:17;;;;;;;6.50;2.80;;;;;;;3.29;94.88;102973.13;5046718;28;20124;-67
2023/04/03 04:31:48;;;;;;;7.72;2.70;;;;;;;3.25;95.50;102979.03;5054594;28;20123;-65
2023/04/03 04:34:16;;;;;;;8.20;2.90;;;;;;;3.16;95.26;102975.50;5053851;28;20100;-67
2023/04/03 04:36:44;;;;;;;9.18;2.90;;;;;;;3.06;96.32;102974.81;5034780;28;20107;-67
2023/04/03 04:39:12;;;;;;;9.55;2.83;;;;;;;3.05;96.27;102978.47;5049723;28;20061;-67
2023/04/03 04:41:41;;;;;;;6.07;2.70;;;;;;;2.99;96.33;102980.84;5058114;28;20057;-66
2023/04/03 04:44:09;;;;;;;6.10;2.90;;;;;;;2.89;97.08;102979.31;5087448;28;20052;-66
2023/04/03 04:46:37;;;;;;;7.10;3.20;;;;;;;2.90;98.05;102983.66;5054081;28;20049;-66
2023/04/03 04:49:07;;;;;;;6.15;3.00;;;;;;;2.92;97.64;102981.66;5018353;28;20061;-66
2023/04/03 04:51:34;;;;;;;5.40;2.58;;;;;;;2.97;98.15;102982.00;5045283;28;20553;-66
2023/04/03 04:54:19;;;;;;;4.32;2.40;;;;;;;3.04;96.86;102992.97;5032746;28;20445;-69
2023/04/03 04:56:49;;;;;;;8.60;2.85;;;;;;;2.98;97.40;102989.94;5050507;28;20044;-66
2023/04/03 04:59:17;;;;;;;5.68;2.47;;;;;;;3.01;97.28;103001.34;5017642;28;20448;-67
2023/04/03 05:01:48;;;;;;;6.68;3.03;;;;;;;3.07;97.57;102992.63;5034077;28;20041;-67
2023/04/03 05:04:17;;;;;;;4.55;2.70;;;;;;;3.05;96.38;102994.63;5016777;28;20056;-67
2023/04/03 05:06:48;;;;;;;5.97;2.70;;;;;;;2.94;96.38;103004.72;5002795;28;20069;-66
2023/04/03 05:09:22;;;;;;;8.52;3.20;;;;;;;2.94;97.06;103002.03;4321967;28;10000331;-69
2023/04/03 05:11:51;;;;;;;5.25;2.60;;;;;;;3.02;96.28;103000.38;5029655;28;20137;-67
2023/04/03 05:14:22;;;;;;;7.20;2.83;;;;;;;2.92;96.08;102995.97;5046098;28;20064;-67
2023/04/03 05:16:53;;;;;;;9.15;2.95;;;;;;;2.91;97.02;102993.41;5030273;28;20065;-68
2023/04/03 05:19:24;;;;;;;7.18;2.70;;;;;;;2.83;96.42;102996.94;5045959;28;20144;-66
2023/04/03 05:21:52;;;;;;;8.82;2.85;;;;;;;2.89;96.58;103004.38;5039050;28;20100;-68
2023/04/03 05:24:21;;;;;;;5.80;2.50;;;;;;;3.01;95.41;103001.34;5022173;28;20065;-67
2023/04/03 05:26:49;;;;;;;6.55;2.80;;;;;;;2.98;95.44;103010.59;5013508;28;20125;-66
2023/04/03 05:29:17;;;;;;;6.00;2.90;;;;;;;2.89;94.55;103006.22;5022571;28;20049;-67
2023/04/03 05:31:46;;;;;;;7.78;2.85;;;;;;;2.89;95.54;103001.69;5045834;28;20091;-66
2023/04/03 05:34:14;;;;;;;7.45;2.92;;;;;;;2.83;95.10;103001.47;5048733;28;20079;-66
2023/04/03 05:36:43;;;;;;;6.50;2.85;;;;;;;2.83;95.09;103009.56;5031574;28;20163;-67
2023/04/03 05:39:12;;;;;;;6.13;2.72;;;;;;;2.77;96.32;103008.38;5036034;28;20061;-68
2023/04/03 05:41:43;;;;;;;6.38;2.80;;;;;;;2.62;95.76;103007.28;5003422;28;20071;-67
2023/04/03 05:44:11;;;;;;;8.77;3.17;;;;;;;2.59;96.67;103015.69;5035473;28;20049;-67
2023/04/03 05:46:39;;;;;;;6.85;2.95;;;;;;;2.51;96.56;103014.63;5055833;28;20477;-70
2023/04/03 05:49:09;;;;;;;7.25;3.10;;;;;;;2.55;97.16;103015.16;5040709;28;20049;-67
2023/04/03 05:51:39;;;;;;;7.63;2.70;;;;;;;2.77;96.84;103024.53;5040867;28;20071;-68
2023/04/03 05:54:34;;;;;;;9.02;3.10;;;;;;;2.85;94.88;103029.91;5020021;28;20053;-66
2023/04/03 05:57:17;;;;;;;6.43;2.80;;;;;;;2.76;95.54;103033.59;5030070;28;20045;-66
2023/04/03 05:59:46;;;;;;;7.25;2.58;;;;;;;2.73;95.39;103036.59;5034407;28;20045;-67
2023/04/03 06:02:17;;;;;;;9.07;3.20;;;;;;;2.76;95.95;103038.97;5016110;28;20054;-66
2023/04/03 06:04:47;;;;;;;7.43;3.00;;;;;;;2.67;95.69;103034.53;5014562;28;20045;-68
2023/04/03 06:07:19;;;;;;;5.15;2.70;;;;;;;2.65;96.27;103041.97;5017899;28;20152;-69
2023/04/03 06:09:47;;;;;;;6.88;2.83;;;;;;;2.56;96.40;103033.81;5031356;28;20056;-68
2023/04/03 06:12:17;;;;;;;7.57;3.08;;;;;;;2.65;97.06;103032.03;5012598;28;20056;-67
2023/04/03 06:14:44;;;;;;;5.53;2.50;;;;;;;2.82;96.36;103038.34;5013975;28;20068;-67
2023/04/03 06:17:15;;;;;;;7.93;3.03;;;;;;;2.90;95.42;103043.75;5018500;28;20440;-66
2023/04/03 06:19:44;;;;;;;7.82;3.28;;;;;;;2.80;94.36;103044.88;5038151;28;20045;-67
2023/04/03 06:22:12;;;;;;;5.63;2.53;;;;;;;2.86;94.77;103039.72;5029492;28;20103;-66
2023/04/03 06:24:40;;;;;;;8.35;2.70;;;;;;;2.85;94.43;103038.00;5009903;28;20048;-68
2023/04/03 06:27:09;;;;;;;7.43;3.13;;;;;;;2.95;93.73;103043.25;5052220;28;20055;-69
2023/04/03 06:29:37;;;;;;;7.05;3.10;;;;;;;3.06;93.44;103050.22;5034195;28;20049;-66
2023/04/03 06:32:04;;;;;;;6.53;2.95;;;;;;;3.15;92.74;103042.00;5037897;28;20084;-66
2023/04/03 06:34:32;;;;;;;7.72;2.70;;;;;;;3.12;92.10;103044.16;5034622;28;20134;-66
2023/04/03 06:37:00;;;;;;;6.00;2.92;;;;;;;3.16;91.38;103050.91;5072819;28;20140;-65
2023/04/03 06:39:27;;;;;;;10.23;3.47;;;;;;;3.16;91.22;103045.53;5021247;28;20057;-67
2023/04/03 06:41:55;;;;;;;7.57;2.78;;;;;;;3.01;91.87;103049.81;5050043;28;20489;-66
2023/04/03 06:44:37;;;;;;;7.10;2.78;;;;;;;2.99;92.14;103052.69;5038511;28;20750;-66
2023/04/03 06:47:04;;;;;;;8.23;3.28;;;;;;;2.97;91.94;103063.63;5021077;28;20049;-68
2023/04/03 06:49:33;;;;;;;6.90;2.80;;;;;;;2.92;92.41;103057.88;5047464;28;20053;-68
2023/04/03 06:52:01;;;;;;;7.65;3.00;;;;;;;2.95;92.05;103062.94;5047348;28;20048;-68
2023/04/03 06:54:30;;;;;;;7.68;3.05;;;;;;;3.04;92.56;103063.00;5032708;28;20412;-67
2023/04/03 06:56:58;;;;;;;10.52;2.92;;;;;;;3.05;91.47;103062.81;5037708;28;20045;-67
2023/04/03 06:59:26;;;;;;;6.97;2.97;;;;;;;2.97;91.13;103069.00;5044079;28;20079;-67
2023/04/03 07:01:54;;;;;;;8.05;3.50;;;;;;;2.93;93.58;103066.81;5025384;28;20132;-68
2023/04/03 07:04:22;;;;;;;9.20;3.22;;;;;;;3.03;91.60;103066.66;5041010;28;20049;-68
2023/04/03 07:06:50;;;;;;;9.00;3.50;;;;;;;3.14;90.16;103072.59;5031283;28;20124;-67
2023/04/03 07:09:18;;;;;;;8.38;3.22;;;;;;;3.18;89.67;103071.28;5017597;28;20054;-67
2023/04/03 07:11:46;;;;;;;7.32;3.30;;;;;;;3.23;89.11;103078.88;5038199;28;20124;-67
2023/04/03 07:14:13;;;;;;;14.43;4.13;;;;;;;3.33;90.18;103074.19;5033301;28;20038;-68
2023/04/03 07:16:41;;;;;;;7.28;3.17;;;;;;;3.32;89.50;103077.91;5026750;28;20053;-67
2023/04/03 07:19:09;;;;;;;7.20;2.90;;;;;;;3.39;89.42;103072.69;5028997;28;20057;-67
2023/04/03 07:21:37;;;;;;;9.88;3.60;;;;;;;3.44;89.22;103081.13;5031212;28;20037;-68
2023/04/03 07:24:06;;;;;;;8.88;3.13;;;;;;;3.46;88.07;103081.78;5044758;28;20063;-66
2023/04/03 07:26:39;;;;;;;8.30;2.97;;;;;;;3.61;89.99;103084.72;5033342;28;20124;-65
2023/04/03 07:29:07;;;;;;;8.73;3.17;;;;;;;3.52;87.29;103085.69;5013978;28;20061;-66
2023/04/03 07:31:35;;;;;;;7.20;2.85;;;;;;;3.49;88.43;103088.69;5033280;28;20095;-65
2023/04/03 07:34:03;;;;;;;8.75;3.28;;;;;;;3.51;88.71;103087.56;5033264;28;20099;-65
2023/04/03 07:36:33;;;;;;;8.55;3.10;;;;;;;3.57;88.57;103094.97;5048578;28;20068;-67
2023/04/03 07:39:00;;;;;;;9.70;3.10;;;;;;;3.60;87.56;103101.88;5018666;28;20398;-66
2023/04/03 07:41:28;;;;;;;7.88;3.17;;;;;;;3.66;88.47;103101.22;5015830;28;20098;-65
2023/04/03 07:43:56;;;;;;;8.50;2.97;;;;;;;3.71;88.46;103103.44;5033217;28;20053;-66
2023/04/03 07:46:24;;;;;;;9.07;3.35;;;;;;;3.70;87.43;103097.16;5036449;28;20045;-65
2023/04/03 07:48:51;;;;;;;10.60;3.50;;;;;;;3.66;87.11;103105.78;5036865;28;20392;-65
2023/04/03 07:51:20;;;;;;;8.23;3.03;;;;;;;3.62;86.30;103106.09;5036312;28;20046;-67
2023/04/03 07:53:48;;;;;;;9.00;3.40;;;;;;;3.67;85.60;103092.13;5036608;28;20057;-67
2023/04/03 07:56:17;;;;;;;10.40;3.25;;;;;;;3.69;85.16;103106.28;5021335;28;20046;-66
2023/04/03 07:58:45;;;;;;;10.30;3.00;;;;;;;3.78;86.36;103105.28;5031676;28;20085;-66
2023/04/03 08:01:12;;;;;;;10.35;3.20;;;;;;;3.90;85.02;103102.28;5048549;28;20058;-65
2023/04/03 08:03:40;;;;;;;6.90;2.63;;;;;;;3.98;82.88;103110.34;5031511;28;20042;-65
2023/04/03 08:06:09;;;;;;;10.02;3.05;;;;;;;4.03;82.59;103108.84;5031629;28;20046;-65
2023/04/03 08:08:43;;;;;;;7.75;2.90;;;;;;;4.06;78.76;103107.66;5015447;28;20050;-67
2023/04/03 08:11:11;;;;;;;8.38;2.67;;;;;;;4.01;77.10;103105.47;5031781;28;20050;-66
2023/04/03 08:13:41;;;;;;;6.25;2.85;;;;;;;4.02;77.58;103111.72;5046298;28;20053;-65
2023/04/03 08:16:17;;;;;;;6.40;2.78;;;;;;;4.03;78.31;103105.31;5015124;28;20449;-66
2023/04/03 08:18:45;;;;;;;6.13;2.78;;;;;;;4.08;79.00;103100.25;5024094;28;20091;-66
2023/04/03 08:21:13;;;;;;;11.95;3.72;;;;;;;4.13;77.92;103097.03;5035881;28;20057;-65
2023/04/03 08:23:41;;;;;;;7.13;2.60;;;;;;;4.20;76.08;103109.69;5036092;28;20071;-66
2023/04/03 08:26:13;;;;;;;7.05;2.92;;;;;;;4.24;72.49;103100.25;5018950;28;20049;-66
2023/04/03 08:28:41;;;;;;;10.77;2.97;;;;;;;4.18;69.85;103117.09;5034168;28;20073;-66
2023/04/03 08:31:13;;;;;;;8.27;2.78;;;;;;;4.18;70.43;103117.09;4999016;28;20446;-65
2023/04/03 08:33:41;;;;;;;5.88;2.60;;;;;;;4.21;71.70;103108.69;5031354;28;20041;-65
2023/04/03 08:36:19;;;;;;;7.28;2.60;;;;;;;4.24;68.50;103111.03;5031833;28;20046;-66
2023/04/03 08:38:47;;;;;;;5.63;2.28;;;;;;;4.31;63.66;103110.38;5032245;28;20061;-65
2023/04/03 08:41:32;;;;;;;6.78;2.80;;;;;;;4.32;63.19;103112.88;5000234;28;20453;-67
2023/04/03 08:44:03;;;;;;;6.97;2.40;;;;;;;4.38;63.46;103114.06;5049966;28;20064;-65
2023/04/03 08:46:49;;;;;;;6.72;2.88;;;;;;;4.42;60.97;103107.31;5037579;28;20477;-66
2023/04/03 08:49:42;;;;;;;7.65;3.00;;;;;;;4.47;63.14;103115.72;5031846;28;20579;-66
2023/04/03 08:52:14;;;;;;;8.55;2.75;;;;;;;4.54;60.98;103105.09;5003624;28;20472;-66
2023/04/03 08:55:02;;;;;;;6.30;2.30;;;;;;;4.60;61.08;103116.06;5031536;28;20473;-66
2023/04/03 08:57:41;;;;;;;10.38;2.97;;;;;;;4.70;62.14;103111.31;5031213;28;20393;-67
2023/04/03 09:00:20;;;;;;;7.03;2.60;;;;;;;4.78;59.85;103117.69;5030740;28;20054;-66
2023/04/03 09:02:50;;;;;;;7.15;2.70;;;;;;;4.81;55.35;103114.66;5017603;28;20060;-66
2023/04/03 09:05:35;;;;;;;5.30;2.35;;;;;;;4.94;57.39;103120.38;5035861;28;20053;-67
2023/04/03 09:08:43;;;;;;;4.30;2.30;;;;;;;5.12;55.84;103117.41;5035750;28;20077;-66
2023/04/03 09:11:33;;;;;;;5.07;2.47;;;;;;;5.13;53.52;103111.84;5034225;28;20037;-66
2023/04/03 09:14:26;;;;;;;5.35;2.30;;;;;;;5.14;54.03;103123.50;5017744;28;20128;-65
2023/04/03 09:17:07;;;;;;;5.57;2.30;;;;;;;5.13;56.83;103119.94;5034326;28;20553;-65
2023/04/03 09:19:47;;;;;;;6.65;2.20;;;;;;;5.00;53.12;103127.75;5032932;28;20045;-65
2023/04/03 09:22:21;;;;;;;5.72;2.40;;;;;;;5.10;51.11;103127.59;5067719;28;20045;-66
2023/04/03 09:24:57;;;;;;;8.40;4.20;;;;;;;5.22;52.47;103125.31;5034599;28;20501;-66
2023/04/03 09:27:25;;;;;;;6.55;2.60;;;;;;;5.27;53.14;103125.66;5035669;28;20401;-66
2023/04/03 09:29:55;;;;;;;5.28;2.30;;;;;;;5.28;50.90;103119.22;5033998;28;20059;-66
2023/04/03 09:32:28;;;;;;;5.88;2.40;;;;;;;5.30;50.12;103128.84;5033697;28;20111;-67
2023/04/03 09:35:08;;;;;;;3.97;1.90;;;;;;;5.32;48.09;103116.00;5050522;28;20508;-65
2023/04/03 09:37:56;;;;;;;3.72;2.00;;;;;;;5.40;44.17;103125.06;5048241;28;20417;-66
2023/04/03 09:40:34;;;;;;;3.58;1.67;;;;;;;5.40;45.27;103123.22;5026333;28;20463;-65
2023/04/03 09:43:24;;;;;;;4.90;2.00;;;;;;;5.43;42.32;103120.13;5018296;28;20116;-66
2023/04/03 09:45:52;;;;;;;5.18;1.70;;;;;;;5.45;42.47;103115.41;5036057;28;20052;-66
2023/04/03 09:48:23;;;;;;;4.55;2.03;;;;;;;5.50;42.53;103112.16;5036020;28;20092;-67
2023/04/03 09:50:52;;;;;;;8.73;2.60;;;;;;;5.52;43.07;103107.44;5022060;28;20046;-66
2023/04/03 09:53:42;;;;;;;3.13;1.83;;;;;;;5.50;41.88;103095.94;5045725;28;20048;-65
2023/04/03 09:56:23;;;;;;;6.07;2.13;;;;;;;5.58;43.32;103100.47;5042192;28;20524;-67
2023/04/03 09:58:59;;;;;;;5.93;2.20;;;;;;;5.64;42.12;103088.94;5039813;28;20075;-66
2023/04/03 10:01:39;;;;;;;3.58;2.20;;;;;;;5.65;40.75;103107.72;5046225;28;20485;-65
2023/04/03 10:04:18;;;;;;;4.93;1.70;;;;;;;5.63;40.51;103093.50;4997470;28;20049;-68
2023/04/03 10:06:51;;;;;;;2.58;1.88;;;;;;;5.66;41.40;103086.91;5013104;28;20046;-67
2023/04/03 10:09:28;;;;;;;4.50;2.05;;;;;;;5.75;42.07;103088.53;5031547;28;20055;-65
2023/04/03 10:12:09;;;;;;;3.08;1.70;;;;;;;5.83;39.56;103084.94;5017382;28;20412;-65
2023/04/03 10:14:38;;;;;;;2.05;1.65;;;;;;;5.81;38.08;103087.81;5044551;28;20044;-65
2023/04/03 10:17:24;;;;;;;2.05;1.42;;;;;;;5.87;38.40;103076.28;5051851;28;20116;-65
2023/04/03 10:20:13;;;;;;;4.47;1.85;;;;;;;5.91;36.58;103095.69;5046109;28;20045;-65
2023/04/03 10:23:00;;;;;;;4.68;2.25;;;;;;;5.90;36.66;103089.44;5041551;28;20346;-65
2023/04/03 10:25:44;;;;;;;4.18;1.48;;;;;;;5.91;35.22;103082.97;5033015;28;20151;-66
2023/04/03 10:28:26;;;;;;;2.03;1.20;;;;;;;5.94;36.99;103076.41;5075058;28;20052;-66
2023/04/03 10:31:16;;;;;;;3.08;1.70;;;;;;;6.02;38.75;103070.09;5033157;28;20392;-67
2023/04/03 10:34:02;;;;;;;1.70;1.45;;;;;;;6.08;37.10;103061.22;5037903;28;20055;-65
2023/04/03 10:36:49;;;;;;;;;;;;;;;6.16;38.19;103053.06;5031332;28;20579;-66
2023/04/03 10:39:35;;;;;;;2.03;1.40;;;;;;;6.20;37.85;103057.06;5063961;28;20042;-66
2023/04/03 10:42:19;;;;;;;;;;;;;;;6.26;39.59;103048.22;5041969;28;20065;-66
2023/04/03 10:45:11;;;;;;;4.05;1.90;;;;;;;6.28;37.02;103046.16;5037865;28;19972;-64
2023/04/03 10:48:16;;;;;;;5.97;2.08;;;;;;;6.32;35.75;103033.94;5032624;28;20531;-65
2023/04/03 10:50:52;;;;;;;4.75;2.03;;;;;;;6.33;35.74;103045.63;5052526;28;20041;-66
2023/04/03 10:53:26;;;;;;;5.60;2.28;;;;;;;6.28;36.32;103042.63;5048925;28;20127;-65
2023/04/03 10:56:12;;;;;;;3.30;1.77;;;;;;;6.33;35.29;103048.31;5042035;28;20045;-66
2023/04/03 10:58:44;;;;;;;1.83;1.60;;;;;;;6.35;36.19;103057.06;5034302;28;20051;-68
2023/04/03 11:01:20;;;;;;;3.25;2.22;;;;;;;6.37;36.99;103045.06;5035934;28;20076;-66
2023/04/03 11:03:56;;;;;;;5.67;2.57;;;;;;;6.42;38.63;103024.69;5046586;28;20033;-66
2023/04/03 11:06:28;;;;;;;3.55;1.77;;;;;;;6.49;37.41;103028.34;5023179;28;20092;-65
2023/04/03 11:09:28;;;;;;;5.20;2.33;;;;;;;6.54;37.85;103025.91;5017020;28;20144;-66
2023/04/03 11:12:04;;;;;;;3.92;2.20;;;;;;;6.54;37.85;103031.31;5046073;28;20087;-66
2023/04/03 11:14:34;;;;;;;5.30;2.53;;;;;;;6.58;37.87;103021.81;5020135;28;20051;-66
2023/04/03 11:17:22;;;;;;;4.18;2.08;;;;;;;6.58;37.61;103024.50;5050430;28;20041;-67
2023/04/03 11:20:06;;;;;;;8.07;3.65;;;;;;;6.58;38.17;103036.19;5046874;28;20056;-67
2023/04/03 11:22:38;;;;;;;3.38;1.83;;;;;;;6.67;37.72;103033.41;5036431;28;20112;-67
2023/04/03 11:25:12;;;;;;;3.28;2.00;;;;;;;6.63;36.81;103027.50;5019802;28;20072;-71
2023/04/03 11:27:50;;;;;;;3.42;1.88;;;;;;;6.73;38.37;103024.50;5044978;28;20052;-67
2023/04/03 11:30:33;;;;;;;3.40;1.83;;;;;;;6.83;38.25;103022.34;5019807;28;20072;-67
2023/04/03 11:33:19;;;;;;;5.28;2.20;;;;;;;6.79;37.00;103013.75;5039208;28;20093;-65
2023/04/03 11:35:50;;;;;;;4.32;1.65;;;;;;;6.71;36.97;103008.47;5018697;28;20424;-66
2023/04/03 11:38:30;;;;;;;4.68;1.92;;;;;;;6.69;35.76;103015.94;5035168;28;20061;-65
2023/04/03 11:40:58;;;;;;;1.73;1.60;;;;;;;6.69;35.82;103010.50;5021170;28;20041;-65
2023/04/03 11:43:29;;;;;;;4.20;2.10;;;;;;;6.70;37.05;103006.75;5035872;28;20041;-65
2023/04/03 11:46:01;;;;;;;5.78;2.20;;;;;;;6.74;39.28;103002.66;5040858;28;20053;-67
2023/04/03 11:48:31;;;;;;;5.28;2.00;;;;;;;6.72;37.38;103003.88;5037392;28;20119;-66
2023/04/03 11:51:06;;;;;;;4.00;1.92;;;;;;;6.81;38.80;103008.16;5036031;28;20103;-66
2023/04/03 11:53:39;;;;;;;5.40;2.22;;;;;;;6.88;38.44;103008.22;5036512;28;20120;-66
2023/04/03 11:56:27;;;;;;;4.22;2.10;;;;;;;6.91;37.28;103008.69;5072396;28;20098;-66
2023/04/03 11:59:10;;;;;;;4.93;2.10;;;;;;;7.02;36.77;102993.81;5056039;28;20064;-66